ORD weather

Chicago O'Hare International Airport
Chicago, Illinois, United States

Public forecast

Using degrees Fahrenheit for public forecast. Weather courtesy of forecast.io.

METAR (pilot weather report)

Retrieved 2017/07/27 02:51 UTC (1 hour ago):

KORD 270251Z 16008KT 9SM FEW038 OVC150 26/21 A2996 RMK AO2 SLP141 T02610211 50002

TAF (pilot weather forecast)

Forecast is more than 12 hours old.

Retrieved 2017/07/26 00:33 UTC (1 day ago):

TAF KORD 262330Z 2700/2806 19007KT P6SM SCT035 BKN150 FM270200 16005KT P6SM VCSH SCT035 OVC080 FM270800 VRB03KT 6SM BR SCT020 BKN040 FM271400 04008KT P6SM SCT030 BKN050 FM272000 02012G18KT P6SM SCT020 BKN040